createdAt,value
2017-12-22T00:01:12.059Z,1.83
2017-12-22T00:03:45.539Z,2.00
2017-12-22T00:06:19.006Z,2.17
2017-12-22T00:08:52.414Z,2.67
2017-12-22T00:11:25.763Z,2.00
2017-12-22T00:13:59.928Z,2.50
2017-12-22T00:16:33.545Z,3.00
2017-12-22T00:19:07.847Z,2.00
2017-12-22T00:21:41.762Z,3.00
2017-12-22T00:24:15.590Z,2.00
2017-12-22T00:26:48.812Z,2.33
2017-12-22T00:29:22.236Z,3.50
2017-12-22T00:31:56.010Z,2.50
2017-12-22T00:34:29.683Z,3.00
2017-12-22T00:37:03.078Z,2.00
2017-12-22T00:39:36.533Z,2.00
2017-12-22T00:42:11.279Z,2.00
2017-12-22T00:44:45.085Z,2.83
2017-12-22T00:47:18.710Z,3.33
2017-12-22T00:49:53.395Z,2.83
2017-12-22T00:52:27.418Z,3.00
2017-12-22T00:55:01.062Z,4.00
2017-12-22T00:57:35.036Z,3.00
2017-12-22T01:00:09.505Z,3.00
2017-12-22T01:02:43.011Z,2.67
2017-12-22T01:05:15.794Z,2.80
2017-12-22T01:07:49.215Z,3.00
2017-12-22T01:10:23.495Z,3.50
2017-12-22T01:12:57.381Z,3.33
2017-12-22T01:15:35.190Z,4.00
2017-12-22T01:19:12.647Z,4.00
2017-12-22T01:21:46.559Z,3.33
2017-12-22T01:24:20.566Z,2.50
2017-12-22T01:26:54.088Z,2.67
2017-12-22T01:29:28.549Z,3.00
2017-12-22T01:32:02.271Z,3.50
2017-12-22T01:34:35.703Z,3.17
2017-12-22T01:37:09.170Z,3.17
2017-12-22T01:39:42.975Z,3.00
2017-12-22T01:42:16.586Z,3.00
2017-12-22T01:44:50.371Z,3.00
2017-12-22T01:47:23.942Z,3.00
2017-12-22T01:49:57.348Z,3.33
2017-12-22T01:52:31.391Z,2.83
2017-12-22T01:55:04.823Z,3.33
2017-12-22T01:57:39.072Z,3.00
2017-12-22T02:00:21.403Z,3.00
2017-12-22T02:02:54.670Z,3.17
2017-12-22T02:05:28.714Z,3.00
2017-12-22T02:08:02.515Z,3.00
2017-12-22T02:10:36.247Z,3.00
2017-12-22T02:13:10.055Z,4.00
2017-12-22T02:15:43.842Z,2.83
2017-12-22T02:18:17.612Z,2.83
2017-12-22T02:20:51.086Z,3.00
2017-12-22T02:23:24.751Z,3.00
2017-12-22T02:25:58.198Z,3.33
2017-12-22T02:28:31.959Z,3.00
2017-12-22T02:31:05.959Z,3.00
2017-12-22T02:33:38.783Z,2.20
2017-12-22T02:36:12.275Z,3.17
2017-12-22T02:38:46.053Z,3.00
2017-12-22T02:41:20.740Z,3.83
2017-12-22T02:43:54.890Z,3.00
2017-12-22T02:46:28.691Z,3.17
2017-12-22T02:49:02.279Z,4.00
2017-12-22T02:51:35.676Z,3.83
2017-12-22T02:54:09.066Z,3.83
2017-12-22T02:56:42.435Z,3.17
2017-12-22T02:59:19.379Z,3.17
2017-12-22T03:01:53.213Z,3.33
2017-12-22T03:04:27.879Z,3.00
2017-12-22T03:07:01.672Z,2.83
2017-12-22T03:09:35.086Z,2.83
2017-12-22T03:12:08.463Z,3.50
2017-12-22T03:14:42.150Z,3.00
2017-12-22T03:17:15.829Z,3.00
2017-12-22T03:19:49.537Z,4.33
2017-12-22T03:22:22.886Z,2.17
2017-12-22T03:24:56.518Z,2.50
2017-12-22T03:27:30.902Z,3.00
2017-12-22T03:30:05.703Z,4.00
2017-12-22T03:32:39.577Z,3.00
2017-12-22T03:35:13.235Z,3.00
2017-12-22T03:37:46.546Z,3.00
2017-12-22T03:40:19.925Z,2.67
2017-12-22T03:42:53.549Z,3.00
2017-12-22T03:45:27.993Z,2.83
2017-12-22T03:48:01.465Z,2.33
2017-12-22T03:50:35.449Z,3.00
2017-12-22T03:53:13.065Z,3.33
2017-12-22T03:55:47.034Z,3.67
2017-12-22T03:58:21.673Z,3.00
2017-12-22T04:00:55.581Z,2.50
2017-12-22T04:03:29.702Z,2.71
2017-12-22T04:06:03.325Z,2.67
2017-12-22T04:08:36.922Z,3.33
2017-12-22T04:11:10.689Z,3.33
2017-12-22T04:13:44.119Z,2.17
2017-12-22T04:16:18.109Z,4.17
2017-12-22T04:18:51.465Z,4.33
2017-12-22T04:21:25.113Z,3.67
2017-12-22T04:23:58.863Z,2.83
2017-12-22T04:26:32.937Z,3.83
2017-12-22T04:29:06.342Z,2.00
2017-12-22T04:31:40.004Z,4.00
2017-12-22T04:34:13.473Z,3.00
2017-12-22T04:36:47.206Z,2.50
2017-12-22T04:39:21.345Z,3.00
2017-12-22T04:41:55.077Z,2.33
2017-12-22T04:44:29.832Z,2.50
2017-12-22T04:47:03.758Z,2.50
2017-12-22T04:49:37.474Z,3.00
2017-12-22T04:52:11.178Z,2.50
2017-12-22T04:54:44.493Z,2.83
2017-12-22T04:57:18.324Z,2.00
2017-12-22T04:59:51.785Z,2.00
2017-12-22T05:02:25.486Z,2.33
2017-12-22T05:04:58.969Z,2.00
2017-12-22T05:07:32.888Z,2.00
2017-12-22T05:10:06.330Z,2.17
2017-12-22T05:12:39.832Z,2.00
2017-12-22T05:15:14.640Z,3.00
2017-12-22T05:17:48.621Z,2.17
2017-12-22T05:20:21.994Z,1.67
2017-12-22T05:22:55.633Z,1.33
2017-12-22T05:25:29.879Z,1.67
2017-12-22T05:28:03.506Z,2.67
2017-12-22T05:30:37.295Z,2.00
2017-12-22T05:33:10.657Z,2.00
2017-12-22T05:35:44.105Z,2.00
2017-12-22T05:38:18.165Z,2.00
2017-12-22T05:40:51.793Z,2.00
2017-12-22T05:43:25.430Z,2.00
2017-12-22T05:45:59.030Z,2.00
2017-12-22T05:48:32.811Z,2.33
2017-12-22T05:51:06.822Z,1.50
2017-12-22T05:53:40.450Z,2.00
2017-12-22T05:56:17.777Z,2.00
2017-12-22T05:58:51.166Z,2.17
2017-12-22T06:01:25.018Z,2.00
2017-12-22T06:03:59.285Z,2.00
2017-12-22T06:06:32.857Z,2.00
2017-12-22T06:09:06.617Z,2.17
2017-12-22T06:11:39.985Z,2.00
2017-12-22T06:14:13.598Z,1.17
2017-12-22T06:16:47.205Z,2.00
2017-12-22T06:19:20.874Z,2.00
2017-12-22T06:21:54.298Z,2.00
2017-12-22T06:24:28.934Z,2.00
2017-12-22T06:27:02.297Z,1.50
2017-12-22T06:29:35.638Z,1.83
2017-12-22T06:32:09.320Z,2.00
2017-12-22T06:34:43.299Z,2.00
2017-12-22T06:37:16.706Z,1.83
2017-12-22T06:39:50.114Z,1.83
2017-12-22T06:42:24.530Z,1.67
2017-12-22T06:44:59.113Z,1.00
2017-12-22T06:47:33.998Z,1.00
2017-12-22T06:50:07.701Z,2.00
2017-12-22T06:52:41.094Z,1.83
2017-12-22T06:55:14.773Z,1.00
2017-12-22T06:57:48.105Z,2.00
2017-12-22T07:00:22.141Z,2.00
2017-12-22T07:02:55.261Z,2.00
2017-12-22T07:05:28.717Z,1.67
2017-12-22T07:08:02.084Z,2.00
2017-12-22T07:13:02.956Z,1.00
2017-12-22T07:15:36.486Z,0.83
2017-12-22T07:18:10.221Z,1.50
2017-12-22T07:20:43.687Z,1.00
2017-12-22T07:23:17.415Z,1.33
2017-12-22T07:25:50.863Z,1.00
2017-12-22T07:28:24.449Z,1.00
2017-12-22T07:30:57.983Z,1.00
2017-12-22T07:33:31.539Z,2.00
2017-12-22T07:36:07.567Z,2.17
2017-12-22T07:38:41.169Z,1.67
2017-12-22T07:41:14.695Z,2.00
2017-12-22T07:43:48.234Z,1.00
2017-12-22T07:46:21.697Z,2.50
2017-12-22T07:48:55.366Z,1.83
2017-12-22T07:51:28.932Z,1.00
2017-12-22T07:54:02.461Z,2.00
2017-12-22T07:56:36.132Z,2.00
2017-12-22T07:59:09.993Z,1.33
2017-12-22T08:01:43.533Z,2.00
2017-12-22T08:04:17.080Z,1.33
2017-12-22T08:06:51.055Z,1.00
2017-12-22T08:09:24.391Z,1.67
2017-12-22T08:11:58.835Z,1.50
2017-12-22T08:14:32.295Z,1.17
2017-12-22T08:17:05.849Z,2.33
2017-12-22T08:19:39.564Z,1.83
2017-12-22T08:22:13.407Z,1.17
2017-12-22T08:24:47.080Z,2.00
2017-12-22T08:27:21.095Z,1.00
2017-12-22T08:29:54.764Z,1.33
2017-12-22T08:32:28.588Z,2.00
2017-12-22T08:35:02.062Z,1.00
2017-12-22T08:37:35.962Z,1.00
2017-12-22T08:40:09.617Z,2.17
2017-12-22T08:42:43.166Z,2.00
2017-12-22T08:45:16.818Z,2.00
2017-12-22T08:47:50.540Z,1.00
2017-12-22T08:50:24.427Z,1.00
2017-12-22T08:52:59.092Z,1.33
2017-12-22T08:55:32.452Z,2.00
2017-12-22T08:58:06.029Z,2.00
2017-12-22T09:00:39.709Z,1.50
2017-12-22T09:03:13.214Z,2.00
2017-12-22T09:05:46.716Z,1.83
2017-12-22T09:08:20.079Z,2.00
2017-12-22T09:10:54.102Z,1.33
2017-12-22T09:13:27.909Z,1.00
2017-12-22T09:16:02.363Z,2.00
2017-12-22T09:18:36.203Z,2.00
2017-12-22T09:21:09.837Z,1.83
2017-12-22T09:23:43.412Z,1.50
2017-12-22T09:26:17.000Z,1.67
2017-12-22T09:28:50.644Z,1.17
2017-12-22T09:31:24.139Z,2.67
2017-12-22T09:33:59.016Z,1.67
2017-12-22T09:36:32.500Z,2.00
2017-12-22T09:39:06.450Z,3.00
2017-12-22T09:41:40.083Z,2.00
2017-12-22T09:44:13.561Z,2.50
2017-12-22T09:46:47.089Z,2.00
2017-12-22T09:49:20.952Z,2.00
2017-12-22T09:51:54.567Z,3.00
2017-12-22T09:54:28.240Z,2.83
2017-12-22T09:57:01.770Z,2.00
2017-12-22T09:59:35.504Z,2.00
2017-12-22T10:02:09.211Z,2.00
2017-12-22T10:04:43.264Z,1.83
2017-12-22T10:07:19.648Z,2.00
2017-12-22T10:09:53.616Z,1.17
2017-12-22T10:12:27.378Z,2.00
2017-12-22T10:15:03.017Z,2.00
2017-12-22T10:17:36.691Z,2.67
2017-12-22T10:20:11.143Z,2.00
2017-12-22T10:22:44.738Z,2.00
2017-12-22T10:25:18.393Z,2.00
2017-12-22T10:27:54.411Z,2.83
2017-12-22T10:30:28.107Z,1.33
2017-12-22T10:33:01.626Z,2.00
2017-12-22T10:35:35.376Z,2.67
2017-12-22T10:38:08.914Z,1.83
2017-12-22T10:40:42.487Z,2.00
2017-12-22T10:43:16.224Z,2.00
2017-12-22T10:45:49.953Z,3.00
2017-12-22T10:48:23.485Z,2.00
2017-12-22T10:50:57.045Z,2.00
2017-12-22T10:53:30.750Z,3.00
2017-12-22T10:56:05.952Z,3.00
2017-12-22T10:58:39.679Z,1.33
2017-12-22T11:01:13.404Z,2.33
2017-12-22T11:03:46.977Z,2.00
2017-12-22T11:06:21.003Z,2.50
2017-12-22T11:08:54.532Z,2.00
2017-12-22T11:11:28.380Z,2.50
2017-12-22T11:14:02.159Z,2.17
2017-12-22T11:16:35.822Z,2.33
2017-12-22T11:19:10.483Z,2.00
2017-12-22T11:21:43.940Z,2.83
2017-12-22T11:24:19.801Z,2.17
2017-12-22T11:26:53.520Z,2.17
2017-12-22T11:29:27.224Z,3.17
2017-12-22T11:32:02.055Z,2.67
2017-12-22T11:34:36.084Z,3.00
2017-12-22T11:37:09.979Z,2.83
2017-12-22T11:39:43.503Z,2.00
2017-12-22T11:42:17.151Z,2.00
2017-12-22T11:44:51.086Z,2.50
2017-12-22T11:47:24.681Z,3.00
2017-12-22T11:49:58.299Z,3.00
2017-12-22T11:52:32.005Z,2.00
2017-12-22T11:55:05.537Z,2.00
2017-12-22T11:57:39.123Z,3.00
2017-12-22T12:00:16.094Z,3.00
2017-12-22T12:02:50.083Z,2.50
2017-12-22T12:05:23.521Z,2.50
2017-12-22T12:07:57.095Z,2.00
2017-12-22T12:10:30.700Z,2.83
2017-12-22T12:13:04.303Z,2.83
2017-12-22T12:15:37.783Z,2.83
2017-12-22T12:18:12.047Z,2.67
2017-12-22T12:20:45.768Z,2.00
2017-12-22T12:23:17.647Z,8.00
2017-12-22T12:25:48.561Z,14.00
2017-12-22T12:28:19.608Z,16.33
2017-12-22T12:30:50.499Z,17.33
2017-12-22T12:33:21.632Z,20.67
2017-12-22T12:35:52.630Z,20.00
2017-12-22T12:38:23.402Z,23.00
2017-12-22T12:40:54.467Z,20.67
2017-12-22T12:43:25.506Z,22.00
2017-12-22T12:45:56.640Z,23.00
2017-12-22T12:48:27.912Z,21.67
2017-12-22T12:50:58.821Z,22.67
2017-12-22T12:53:29.812Z,25.33
2017-12-22T12:56:00.674Z,25.67
2017-12-22T12:58:31.753Z,22.33
2017-12-22T13:01:02.980Z,22.67
2017-12-22T13:03:34.050Z,22.67
2017-12-22T13:06:05.198Z,22.00
2017-12-22T13:08:39.320Z,23.00
2017-12-22T13:11:12.957Z,25.75
2017-12-22T13:13:46.619Z,24.00
2017-12-22T13:16:22.399Z,24.00
2017-12-22T13:18:53.355Z,23.67
2017-12-22T13:21:24.382Z,22.67
2017-12-22T13:23:55.286Z,23.00
2017-12-22T13:26:26.074Z,23.67
2017-12-22T13:28:57.201Z,23.33
2017-12-22T13:31:28.475Z,24.00
2017-12-22T13:33:59.428Z,24.00
2017-12-22T13:36:32.028Z,24.00
2017-12-22T13:39:03.060Z,24.00
2017-12-22T13:41:34.022Z,21.67
2017-12-22T13:44:05.256Z,22.00
2017-12-22T13:46:36.066Z,22.33
2017-12-22T13:49:07.058Z,22.33
2017-12-22T13:51:38.165Z,22.67
2017-12-22T13:54:09.103Z,21.67
2017-12-22T13:56:40.091Z,21.00
2017-12-22T13:59:12.319Z,20.00
2017-12-22T14:01:43.149Z,16.33
2017-12-22T14:04:14.132Z,16.67
2017-12-22T14:06:45.111Z,15.67
2017-12-22T14:09:15.869Z,13.33
2017-12-22T14:11:46.736Z,15.67
2017-12-22T14:14:19.758Z,12.33
2017-12-22T14:16:50.629Z,13.33
2017-12-22T14:19:21.662Z,14.00
2017-12-22T14:21:53.616Z,11.33
2017-12-22T14:24:24.503Z,11.00
2017-12-22T14:26:57.228Z,13.00
2017-12-22T14:29:29.534Z,11.33
2017-12-22T14:32:02.252Z,9.00
2017-12-22T14:34:35.291Z,9.00
2017-12-22T14:37:07.390Z,11.00
2017-12-22T14:39:38.972Z,8.33
2017-12-22T14:42:11.912Z,8.33
2017-12-22T14:44:43.769Z,8.33
2017-12-22T14:47:15.442Z,7.00
2017-12-22T14:49:47.121Z,9.00
2017-12-22T14:52:18.933Z,8.00
2017-12-22T14:54:50.736Z,8.00
2017-12-22T14:57:22.570Z,8.00
2017-12-22T14:59:54.495Z,8.00
2017-12-22T15:02:26.200Z,8.00
2017-12-22T15:04:58.900Z,8.00
2017-12-22T15:07:31.603Z,6.75
2017-12-22T15:10:04.397Z,6.20
2017-12-22T15:12:37.168Z,6.75
2017-12-22T15:15:13.217Z,6.67
2017-12-22T15:17:45.003Z,7.00
2017-12-22T15:20:16.849Z,6.00
2017-12-22T15:22:49.693Z,7.00
2017-12-22T15:25:21.531Z,7.00
2017-12-22T15:27:53.764Z,4.67
2017-12-22T15:30:25.541Z,6.00
2017-12-22T15:32:58.186Z,6.00
2017-12-22T15:35:30.103Z,4.00
2017-12-22T15:38:01.848Z,4.00
2017-12-22T15:40:34.399Z,4.00
2017-12-22T15:43:07.079Z,7.75
2017-12-22T15:45:41.265Z,4.00
2017-12-22T15:48:15.692Z,5.14
2017-12-22T15:50:49.212Z,3.33
2017-12-22T15:53:23.519Z,3.71
2017-12-22T15:55:56.420Z,4.00
2017-12-22T15:58:30.531Z,4.00
2017-12-22T16:01:04.042Z,3.67
2017-12-22T16:03:37.736Z,3.50
2017-12-22T16:06:11.740Z,3.17
2017-12-22T16:08:45.256Z,5.33
2017-12-22T16:11:19.002Z,5.33
2017-12-22T16:13:53.661Z,3.67
2017-12-22T16:16:27.315Z,3.67
2017-12-22T16:19:00.775Z,4.00
2017-12-22T16:21:35.165Z,5.14
2017-12-22T16:24:11.424Z,3.00
2017-12-22T16:26:44.865Z,4.00
2017-12-22T16:29:19.024Z,4.00
2017-12-22T16:31:52.596Z,3.17
2017-12-22T16:34:27.442Z,4.00
2017-12-22T16:37:00.842Z,3.00
2017-12-22T16:39:34.468Z,3.67
2017-12-22T16:42:07.940Z,4.67
2017-12-22T16:44:41.839Z,5.33
2017-12-22T16:47:15.555Z,3.17
2017-12-22T16:49:48.259Z,4.20
2017-12-22T16:52:21.919Z,3.33
2017-12-22T16:54:55.598Z,3.67
2017-12-22T16:57:29.226Z,3.67
2017-12-22T17:00:04.567Z,4.00
2017-12-22T17:02:39.340Z,4.00
2017-12-22T17:05:15.210Z,4.00
2017-12-22T17:07:48.820Z,3.33
2017-12-22T17:10:22.615Z,3.17
2017-12-22T17:12:56.141Z,3.00
2017-12-22T17:15:29.789Z,4.00
2017-12-22T17:18:03.819Z,3.00
2017-12-22T17:20:38.220Z,3.00
2017-12-22T17:23:11.986Z,3.83
2017-12-22T17:25:45.739Z,3.17
2017-12-22T17:28:19.211Z,3.00
2017-12-22T17:30:52.846Z,3.00
2017-12-22T17:33:26.220Z,2.33
2017-12-22T17:35:59.831Z,2.17
2017-12-22T17:38:33.366Z,2.83
2017-12-22T17:41:07.340Z,3.83
2017-12-22T17:43:41.282Z,3.17
2017-12-22T17:46:14.696Z,3.00
2017-12-22T17:48:48.100Z,3.50
2017-12-22T17:51:21.576Z,3.00
2017-12-22T17:53:55.208Z,3.00
2017-12-22T17:56:29.032Z,3.00
2017-12-22T17:59:02.699Z,3.50
2017-12-22T18:01:36.299Z,3.00
2017-12-22T18:04:09.955Z,2.67
2017-12-22T18:06:43.716Z,2.83
2017-12-22T18:09:16.953Z,2.33
2017-12-22T18:11:49.857Z,3.33
2017-12-22T18:14:22.896Z,3.00
2017-12-22T18:16:56.233Z,2.67
2017-12-22T18:19:29.273Z,3.00
2017-12-22T18:22:02.484Z,2.33
2017-12-22T18:24:35.038Z,3.00
2017-12-22T18:27:08.855Z,3.00
2017-12-22T18:29:42.352Z,3.00
2017-12-22T18:32:21.808Z,3.00
2017-12-22T18:34:55.637Z,3.00
2017-12-22T18:37:29.223Z,2.50
2017-12-22T18:40:03.041Z,2.83
2017-12-22T18:42:36.848Z,2.83
2017-12-22T18:45:10.643Z,2.50
2017-12-22T18:47:45.129Z,2.50
2017-12-22T18:50:19.984Z,3.17
2017-12-22T18:52:53.580Z,3.00
2017-12-22T18:55:27.116Z,3.00
2017-12-22T18:58:00.876Z,2.67
2017-12-22T19:00:34.378Z,3.50
2017-12-22T19:03:13.193Z,3.00
2017-12-22T19:05:47.985Z,3.00
2017-12-22T19:08:21.395Z,2.00
2017-12-22T19:10:54.935Z,3.00
2017-12-22T19:13:29.924Z,2.67
2017-12-22T19:16:03.433Z,2.83
2017-12-22T19:18:37.889Z,2.83
2017-12-22T19:21:11.626Z,2.67
2017-12-22T19:23:45.141Z,3.83
2017-12-22T19:26:18.860Z,3.67
2017-12-22T19:28:52.391Z,3.17
2017-12-22T19:31:26.491Z,3.00
2017-12-22T19:34:02.004Z,2.83
2017-12-22T19:36:35.635Z,3.00
2017-12-22T19:39:09.566Z,2.00
2017-12-22T19:41:43.359Z,3.00
2017-12-22T19:44:16.879Z,2.17
2017-12-22T19:46:50.925Z,3.00
2017-12-22T19:49:24.546Z,2.33
2017-12-22T19:51:58.036Z,2.67
2017-12-22T19:54:31.685Z,3.00
2017-12-22T19:57:05.307Z,3.00
2017-12-22T19:59:39.361Z,2.83
2017-12-22T20:02:12.833Z,2.67
2017-12-22T20:04:46.779Z,2.00
2017-12-22T20:07:20.156Z,3.33
2017-12-22T20:09:53.665Z,3.00
2017-12-22T20:12:27.539Z,2.50
2017-12-22T20:15:02.717Z,2.83
2017-12-22T20:17:36.176Z,3.00
2017-12-22T20:20:10.035Z,3.00
2017-12-22T20:22:43.608Z,2.33
2017-12-22T20:25:17.599Z,2.50
2017-12-22T20:27:51.160Z,2.83
2017-12-22T20:30:24.750Z,2.50
2017-12-22T20:32:58.500Z,3.00
2017-12-22T20:35:32.201Z,2.17
2017-12-22T20:38:05.716Z,2.00
2017-12-22T20:40:39.649Z,2.67
2017-12-22T20:43:13.185Z,2.67
2017-12-22T20:45:47.084Z,2.00
2017-12-22T20:48:20.433Z,2.00
2017-12-22T20:50:54.059Z,2.67
2017-12-22T20:53:27.676Z,2.67
2017-12-22T20:56:01.723Z,3.00
2017-12-22T20:58:35.454Z,2.33
2017-12-22T21:01:09.105Z,3.50
2017-12-22T21:03:42.563Z,2.00
2017-12-22T21:06:16.199Z,3.00
2017-12-22T21:08:49.846Z,2.67
2017-12-22T21:11:23.912Z,2.50
2017-12-22T21:13:57.445Z,2.83
2017-12-22T21:16:30.995Z,2.50
2017-12-22T21:19:05.334Z,2.50
2017-12-22T21:21:38.838Z,2.00
2017-12-22T21:24:12.688Z,3.00
2017-12-22T21:26:46.677Z,2.00
2017-12-22T21:29:20.275Z,3.00
2017-12-22T21:31:54.036Z,3.00
2017-12-22T21:34:27.763Z,3.17
2017-12-22T21:37:01.208Z,2.00
2017-12-22T21:39:34.926Z,2.17
2017-12-22T21:42:08.602Z,3.17
2017-12-22T21:44:42.272Z,2.00
2017-12-22T21:47:15.706Z,2.00
2017-12-22T21:49:49.314Z,1.50
2017-12-22T21:52:22.830Z,2.33
2017-12-22T21:54:56.380Z,3.00
2017-12-22T21:57:30.228Z,2.50
2017-12-22T22:00:05.905Z,1.17
2017-12-22T22:02:39.507Z,3.00
2017-12-22T22:05:13.260Z,3.00
2017-12-22T22:07:47.195Z,2.00
2017-12-22T22:10:20.846Z,2.17
2017-12-22T22:12:54.599Z,3.33
2017-12-22T22:15:28.132Z,3.00
2017-12-22T22:18:01.965Z,3.00
2017-12-22T22:20:35.318Z,2.00
2017-12-22T22:23:08.951Z,2.00
2017-12-22T22:25:42.535Z,2.00
2017-12-22T22:28:16.126Z,2.00
2017-12-22T22:30:49.815Z,3.00
2017-12-22T22:33:23.431Z,2.17
2017-12-22T22:42:10.837Z,2.00
2017-12-22T22:44:44.589Z,3.00
2017-12-22T22:49:56.390Z,3.20
2017-12-22T22:52:30.037Z,1.83
2017-12-22T22:55:03.996Z,2.67
2017-12-22T22:57:37.561Z,1.33
2017-12-22T23:00:13.872Z,2.00
2017-12-22T23:02:47.091Z,2.00
2017-12-22T23:05:20.736Z,2.67
2017-12-22T23:07:54.206Z,2.33
2017-12-22T23:10:27.631Z,3.00
2017-12-22T23:13:01.007Z,2.00
2017-12-22T23:15:34.818Z,2.00
2017-12-22T23:18:10.296Z,2.00
2017-12-22T23:20:43.977Z,2.00
2017-12-22T23:23:17.439Z,2.83
2017-12-22T23:25:50.996Z,2.00
2017-12-22T23:28:24.947Z,3.00
2017-12-22T23:30:58.482Z,2.17
2017-12-22T23:33:31.882Z,1.83
2017-12-22T23:36:05.247Z,2.00
2017-12-22T23:38:38.682Z,3.00
2017-12-22T23:41:12.263Z,2.17
2017-12-22T23:43:46.054Z,2.17
2017-12-22T23:46:19.546Z,1.83
2017-12-22T23:48:53.106Z,2.00
2017-12-22T23:51:26.654Z,2.17
2017-12-22T23:54:00.158Z,2.67
2017-12-22T23:56:33.771Z,2.83
2017-12-22T23:59:07.472Z,2.17
